createdAt,value
2018-03-26T00:00:30.556Z,79.31
2018-03-26T00:02:58.197Z,79.32
2018-03-26T00:05:25.842Z,79.41
2018-03-26T00:07:54.234Z,79.63
2018-03-26T00:10:21.864Z,80.08
2018-03-26T00:12:49.620Z,79.11
2018-03-26T00:15:17.439Z,79.18
2018-03-26T00:17:45.068Z,79.19
2018-03-26T00:20:12.712Z,79.80
2018-03-26T00:22:41.595Z,79.59
2018-03-26T00:25:09.551Z,79.68
2018-03-26T00:27:37.397Z,79.67
2018-03-26T00:30:05.022Z,79.42
2018-03-26T00:32:32.885Z,80.55
2018-03-26T00:35:00.580Z,80.40
2018-03-26T00:37:28.213Z,80.25
2018-03-26T00:39:55.877Z,79.98
2018-03-26T00:42:23.832Z,79.81
2018-03-26T00:44:51.742Z,79.96
2018-03-26T00:47:19.388Z,79.36
2018-03-26T00:49:47.740Z,79.16
2018-03-26T00:52:15.606Z,79.03
2018-03-26T00:54:44.062Z,79.54
2018-03-26T00:57:11.684Z,79.52
2018-03-26T00:59:39.594Z,79.92
2018-03-26T01:02:07.240Z,80.65
2018-03-26T01:04:35.495Z,80.63
2018-03-26T01:07:03.093Z,80.81
2018-03-26T01:09:30.733Z,80.63
2018-03-26T01:11:59.023Z,81.20
2018-03-26T01:14:27.371Z,81.21
2018-03-26T01:16:55.013Z,80.89
2018-03-26T01:19:22.650Z,81.13
2018-03-26T01:21:50.979Z,80.70
2018-03-26T01:24:18.620Z,80.91
2018-03-26T01:26:46.814Z,80.66
2018-03-26T01:29:14.871Z,81.72
2018-03-26T01:31:43.785Z,82.07
2018-03-26T01:34:12.386Z,82.09
2018-03-26T01:36:39.989Z,81.86
2018-03-26T01:39:08.018Z,82.14
2018-03-26T01:41:35.869Z,82.06
2018-03-26T01:44:03.539Z,81.41
2018-03-26T01:46:31.208Z,81.52
2018-03-26T01:49:00.680Z,81.74
2018-03-26T01:51:28.322Z,82.18
2018-03-26T01:53:55.991Z,82.05
2018-03-26T01:56:23.690Z,81.89
2018-03-26T01:58:51.300Z,80.88
2018-03-26T02:01:18.942Z,80.49
2018-03-26T02:03:46.652Z,80.62
2018-03-26T02:06:14.754Z,81.02
2018-03-26T02:08:42.934Z,81.41
2018-03-26T02:11:10.572Z,81.79
2018-03-26T02:13:38.216Z,82.36
2018-03-26T02:16:05.858Z,82.62
2018-03-26T02:18:33.561Z,82.22
2018-03-26T02:21:01.207Z,82.49
2018-03-26T02:23:29.422Z,83.71
2018-03-26T02:25:57.162Z,84.13
2018-03-26T02:28:25.016Z,83.55
2018-03-26T02:30:52.724Z,83.07
2018-03-26T02:33:20.302Z,82.59
2018-03-26T02:35:48.014Z,82.43
2018-03-26T02:38:16.293Z,82.67
2018-03-26T02:40:45.038Z,82.29
2018-03-26T02:43:12.842Z,82.38
2018-03-26T02:45:40.761Z,81.61
2018-03-26T02:48:08.775Z,81.91
2018-03-26T02:50:36.442Z,82.42
2018-03-26T02:53:04.099Z,81.87
2018-03-26T02:55:31.764Z,82.11
2018-03-26T02:58:00.176Z,81.70
2018-03-26T03:00:28.726Z,81.63
2018-03-26T03:02:56.509Z,81.21
2018-03-26T03:05:24.307Z,81.16
2018-03-26T03:07:52.139Z,80.37
2018-03-26T03:10:20.361Z,81.49
2018-03-26T03:12:48.600Z,81.85
2018-03-26T03:15:17.724Z,82.07
2018-03-26T03:17:45.678Z,82.86
2018-03-26T03:20:13.388Z,82.55
2018-03-26T03:22:42.295Z,82.28
2018-03-26T03:25:09.944Z,82.72
2018-03-26T03:27:37.609Z,82.72
2018-03-26T03:30:05.924Z,82.57
2018-03-26T03:32:33.668Z,82.55
2018-03-26T03:35:01.517Z,83.19
2018-03-26T03:37:29.918Z,83.50
2018-03-26T03:39:58.198Z,83.27
2018-03-26T03:42:25.843Z,83.59
2018-03-26T03:44:54.480Z,83.30
2018-03-26T03:47:22.513Z,83.26
2018-03-26T03:49:51.417Z,82.80
2018-03-26T03:52:19.997Z,82.63
2018-03-26T03:54:47.851Z,81.98
2018-03-26T03:57:16.493Z,82.90
2018-03-26T03:59:44.157Z,83.75
2018-03-26T04:02:11.835Z,82.91
2018-03-26T04:04:39.635Z,82.32
2018-03-26T04:07:07.461Z,82.78
2018-03-26T04:09:35.366Z,83.48
2018-03-26T04:12:04.450Z,83.00
2018-03-26T04:14:32.741Z,83.31
2018-03-26T04:17:00.607Z,84.10
2018-03-26T04:19:28.267Z,84.02
2018-03-26T04:21:56.650Z,83.66
2018-03-26T04:24:24.406Z,83.10
2018-03-26T04:26:53.144Z,83.02
2018-03-26T04:29:20.944Z,82.29
2018-03-26T04:31:48.865Z,82.39
2018-03-26T04:34:16.751Z,83.40
2018-03-26T04:36:44.554Z,83.79
2018-03-26T04:39:12.150Z,82.96
2018-03-26T04:41:39.992Z,83.04
2018-03-26T04:44:08.551Z,83.93
2018-03-26T04:46:36.439Z,84.46
2018-03-26T04:49:05.730Z,83.54
2018-03-26T04:51:33.380Z,83.52
2018-03-26T04:54:01.052Z,83.61
2018-03-26T04:56:28.714Z,83.36
2018-03-26T04:58:56.658Z,82.95
2018-03-26T05:01:24.362Z,83.18
2018-03-26T05:03:52.611Z,82.84
2018-03-26T05:06:20.443Z,82.80
2018-03-26T05:08:49.285Z,82.37
2018-03-26T05:11:17.056Z,82.17
2018-03-26T05:13:44.770Z,82.44
2018-03-26T05:16:12.464Z,82.94
2018-03-26T05:18:40.263Z,82.88
2018-03-26T05:21:07.915Z,83.53
2018-03-26T05:23:35.584Z,83.44
2018-03-26T05:26:03.334Z,82.92
2018-03-26T05:28:33.724Z,83.32
2018-03-26T05:31:01.788Z,83.29
2018-03-26T05:33:29.493Z,83.12
2018-03-26T05:35:57.376Z,82.89
2018-03-26T05:38:25.034Z,83.10
2018-03-26T05:40:52.669Z,83.46
2018-03-26T05:43:20.325Z,83.33
2018-03-26T05:45:48.193Z,83.15
2018-03-26T05:48:15.895Z,82.44
2018-03-26T05:50:43.850Z,82.51
2018-03-26T05:53:11.595Z,83.64
2018-03-26T05:55:39.284Z,83.24
2018-03-26T05:58:06.929Z,83.19
2018-03-26T06:00:34.594Z,83.91
2018-03-26T06:03:02.587Z,83.29
2018-03-26T06:05:30.959Z,82.57
2018-03-26T06:07:58.600Z,82.37
2018-03-26T06:10:26.263Z,82.64
2018-03-26T06:12:54.362Z,82.41
2018-03-26T06:15:22.202Z,81.82
2018-03-26T06:17:49.947Z,82.69
2018-03-26T06:20:18.317Z,82.14
2018-03-26T06:22:46.133Z,82.34
2018-03-26T06:25:13.994Z,81.71
2018-03-26T06:27:41.852Z,81.59
2018-03-26T06:30:09.528Z,81.21
2018-03-26T06:32:37.167Z,80.70
2018-03-26T06:35:05.697Z,80.41
2018-03-26T06:37:38.866Z,80.31
2018-03-26T06:40:06.704Z,79.35
2018-03-26T06:42:34.949Z,80.36
2018-03-26T06:45:03.316Z,80.38
2018-03-26T06:47:31.099Z,79.92
2018-03-26T06:49:58.981Z,79.16
2018-03-26T06:52:27.199Z,78.90
2018-03-26T06:54:55.047Z,78.66
2018-03-26T06:57:23.133Z,78.67
2018-03-26T06:59:50.801Z,79.04
2018-03-26T07:02:18.695Z,78.79
2018-03-26T07:04:46.875Z,78.95
2018-03-26T07:07:15.281Z,78.23
2018-03-26T07:09:43.017Z,77.32
2018-03-26T07:12:11.040Z,76.75
2018-03-26T07:14:38.716Z,75.85
2018-03-26T07:17:06.766Z,75.91
2018-03-26T07:19:34.516Z,75.85
2018-03-26T07:22:03.078Z,77.18
2018-03-26T07:24:31.421Z,77.81
2018-03-26T07:26:59.039Z,77.19
2018-03-26T07:29:26.950Z,76.43
2018-03-26T07:31:54.743Z,78.60
2018-03-26T07:34:22.864Z,79.10
2018-03-26T07:36:50.484Z,76.55
2018-03-26T07:39:18.775Z,76.10
2018-03-26T07:41:46.661Z,74.22
2018-03-26T07:44:14.343Z,73.52
2018-03-26T07:46:42.421Z,72.89
2018-03-26T07:49:10.282Z,73.53
2018-03-26T07:51:38.149Z,71.98
2018-03-26T07:54:05.793Z,72.01
2018-03-26T07:56:33.479Z,71.68
2018-03-26T07:59:01.111Z,71.78
2018-03-26T08:01:29.012Z,71.55
2018-03-26T08:03:56.882Z,71.37
2018-03-26T08:06:24.537Z,71.44
2018-03-26T08:08:52.206Z,71.11
2018-03-26T08:11:19.910Z,71.17
2018-03-26T08:13:47.615Z,71.51
2018-03-26T08:16:15.256Z,71.29
2018-03-26T08:18:42.925Z,72.99
2018-03-26T08:21:10.556Z,73.39
2018-03-26T08:23:39.290Z,71.25
2018-03-26T08:26:07.783Z,72.53
2018-03-26T08:28:35.658Z,73.63
2018-03-26T08:31:04.076Z,74.70
2018-03-26T08:33:31.787Z,75.42
2018-03-26T08:35:59.459Z,74.69
2018-03-26T08:38:27.116Z,74.11
2018-03-26T08:40:56.218Z,73.61
2018-03-26T08:43:23.884Z,74.33
2018-03-26T08:45:51.540Z,74.58
2018-03-26T08:48:19.426Z,73.94
2018-03-26T08:50:47.267Z,73.03
2018-03-26T08:53:14.958Z,74.39
2018-03-26T08:55:42.628Z,73.08
2018-03-26T08:58:10.457Z,71.55
2018-03-26T09:00:38.130Z,72.05
2018-03-26T09:03:06.617Z,72.05
2018-03-26T09:05:34.280Z,72.13
2018-03-26T09:08:02.012Z,73.20
2018-03-26T09:10:30.081Z,72.52
2018-03-26T09:12:59.078Z,72.03
2018-03-26T09:15:26.791Z,71.51
2018-03-26T09:17:54.748Z,72.12
2018-03-26T09:20:23.987Z,71.59
2018-03-26T09:22:52.112Z,72.68
2018-03-26T09:25:19.988Z,71.06
2018-03-26T09:27:48.893Z,71.32
2018-03-26T09:30:16.792Z,71.31
2018-03-26T09:32:44.805Z,70.91
2018-03-26T09:35:14.453Z,70.68
2018-03-26T09:37:43.090Z,71.28
2018-03-26T09:40:11.380Z,69.76
2018-03-26T09:42:39.726Z,70.18
2018-03-26T09:45:07.431Z,68.92
2018-03-26T09:47:35.067Z,69.44
2018-03-26T09:50:04.026Z,68.65
2018-03-26T09:52:31.707Z,68.78
2018-03-26T09:54:59.641Z,68.46
2018-03-26T09:57:27.678Z,68.40
2018-03-26T09:59:55.746Z,68.82
2018-03-26T10:02:24.845Z,68.25
2018-03-26T10:04:52.829Z,68.58
2018-03-26T10:07:20.471Z,68.16
2018-03-26T10:09:49.482Z,67.93
2018-03-26T10:12:17.384Z,67.14
2018-03-26T10:14:45.298Z,66.64
2018-03-26T10:17:13.885Z,66.06
2018-03-26T10:19:42.169Z,65.42
2018-03-26T10:22:11.495Z,65.60
2018-03-26T10:24:39.312Z,66.84
2018-03-26T10:27:07.181Z,67.73
2018-03-26T10:29:35.252Z,67.37
2018-03-26T10:32:02.936Z,67.99
2018-03-26T10:34:30.598Z,67.71
2018-03-26T10:36:58.488Z,68.01
2018-03-26T10:39:26.193Z,67.53
2018-03-26T10:41:53.784Z,67.72
2018-03-26T10:44:21.867Z,68.13
2018-03-26T10:46:49.729Z,67.80
2018-03-26T10:49:17.580Z,68.16
2018-03-26T10:51:45.351Z,66.98
2018-03-26T10:54:13.132Z,66.26
2018-03-26T10:56:40.947Z,66.81
2018-03-26T10:59:09.170Z,66.61
2018-03-26T11:01:36.834Z,66.68
2018-03-26T11:04:04.478Z,66.84
2018-03-26T11:06:32.361Z,66.99
2018-03-26T11:09:00.029Z,68.13
2018-03-26T11:11:28.301Z,69.15
2018-03-26T11:13:57.457Z,68.00
2018-03-26T11:16:28.092Z,65.24
2018-03-26T11:18:55.951Z,64.73
2018-03-26T11:21:23.771Z,64.93
2018-03-26T11:23:51.925Z,64.24
2018-03-26T11:26:20.005Z,65.46
2018-03-26T11:28:47.941Z,65.54
2018-03-26T11:31:15.804Z,65.85
2018-03-26T11:33:44.033Z,64.88
2018-03-26T11:36:12.002Z,64.67
2018-03-26T11:38:39.744Z,63.71
2018-03-26T11:41:07.827Z,62.91
2018-03-26T11:43:35.559Z,62.40
2018-03-26T11:46:04.552Z,63.06
2018-03-26T11:48:33.030Z,60.86
2018-03-26T11:51:01.090Z,60.89
2018-03-26T11:53:28.978Z,59.03
2018-03-26T11:55:56.666Z,58.25
2018-03-26T11:58:24.544Z,58.93
2018-03-26T12:00:52.606Z,58.82
2018-03-26T12:03:20.777Z,58.39
2018-03-26T12:05:48.547Z,57.06
2018-03-26T12:08:16.205Z,56.79
2018-03-26T12:10:44.277Z,57.31
2018-03-26T12:13:12.142Z,56.84
2018-03-26T12:15:39.823Z,56.11
2018-03-26T12:18:09.066Z,55.33
2018-03-26T12:20:48.740Z,55.87
2018-03-26T12:23:28.602Z,55.99
2018-03-26T12:25:56.686Z,54.54
2018-03-26T12:28:36.837Z,55.92
2018-03-26T12:31:04.709Z,54.25
2018-03-26T12:33:32.702Z,54.63
2018-03-26T12:36:00.675Z,55.38
2018-03-26T12:38:28.514Z,54.28
2018-03-26T12:40:57.130Z,52.46
2018-03-26T12:43:25.158Z,53.78
2018-03-26T12:46:04.507Z,55.16
2018-03-26T12:48:33.940Z,54.70
2018-03-26T12:51:14.289Z,54.56
2018-03-26T12:53:41.985Z,53.88
2018-03-26T12:56:09.906Z,53.20
2018-03-26T12:58:57.598Z,53.32
2018-03-26T13:01:37.119Z,52.42
2018-03-26T13:04:05.376Z,53.48
2018-03-26T13:06:33.796Z,54.20
2018-03-26T13:09:01.665Z,54.50
2018-03-26T13:11:29.530Z,54.30
2018-03-26T13:13:57.622Z,55.23
2018-03-26T13:16:25.874Z,55.48
2018-03-26T13:18:53.972Z,55.65
2018-03-26T13:21:22.555Z,56.90
2018-03-26T13:23:51.111Z,56.94
2018-03-26T13:26:18.829Z,56.60
2018-03-26T13:28:46.557Z,57.72
2018-03-26T13:31:14.462Z,57.65
2018-03-26T13:33:42.241Z,59.23
2018-03-26T13:36:09.943Z,59.60
2018-03-26T13:38:37.661Z,59.43
2018-03-26T13:41:05.360Z,58.58
2018-03-26T13:43:34.244Z,58.70
2018-03-26T13:46:01.994Z,59.97
2018-03-26T13:48:29.715Z,59.27
2018-03-26T13:50:57.401Z,59.21
2018-03-26T13:53:25.107Z,60.32
2018-03-26T13:55:52.802Z,62.04
2018-03-26T13:58:20.536Z,61.01
2018-03-26T14:00:48.194Z,59.99
2018-03-26T14:03:16.778Z,58.94
2018-03-26T14:05:44.692Z,58.23
2018-03-26T14:08:24.872Z,58.20
2018-03-26T14:11:18.238Z,58.89
2018-03-26T14:13:58.459Z,58.01
2018-03-26T14:16:38.096Z,58.05
2018-03-26T14:19:06.169Z,57.92
2018-03-26T14:21:34.250Z,58.89
2018-03-26T14:24:02.173Z,58.76
2018-03-26T14:26:29.985Z,57.79
2018-03-26T14:28:58.409Z,57.56
2018-03-26T14:31:26.304Z,56.38
2018-03-26T14:33:54.645Z,57.02
2018-03-26T14:36:22.676Z,59.11
2018-03-26T14:38:50.685Z,58.36
2018-03-26T14:41:18.828Z,58.22
2018-03-26T14:43:46.606Z,57.92
2018-03-26T14:46:14.262Z,57.66
2018-03-26T14:48:43.259Z,58.01
2018-03-26T14:51:10.919Z,58.21
2018-03-26T14:53:39.428Z,59.04
2018-03-26T14:56:07.143Z,60.27
2018-03-26T14:58:34.874Z,60.81
2018-03-26T15:01:02.629Z,62.92
2018-03-26T15:03:30.726Z,63.49
2018-03-26T15:05:58.574Z,64.32
2018-03-26T15:08:27.187Z,65.22
2018-03-26T15:10:55.232Z,65.35
2018-03-26T15:13:23.321Z,66.09
2018-03-26T15:15:51.078Z,65.28
2018-03-26T15:18:18.882Z,66.18
2018-03-26T15:20:46.943Z,67.29
2018-03-26T15:23:15.841Z,67.23
2018-03-26T15:25:43.911Z,67.43
2018-03-26T15:28:13.263Z,68.25
2018-03-26T15:30:40.982Z,67.68
2018-03-26T15:33:08.941Z,71.04
2018-03-26T15:35:37.024Z,70.86
2018-03-26T15:38:04.866Z,70.45
2018-03-26T15:40:32.762Z,69.30
2018-03-26T15:43:00.797Z,70.14
2018-03-26T15:45:28.667Z,69.23
2018-03-26T15:47:56.584Z,70.55
2018-03-26T15:50:25.251Z,72.62
2018-03-26T15:52:54.263Z,73.36
2018-03-26T15:55:22.008Z,74.40
2018-03-26T15:57:49.704Z,74.46
2018-03-26T16:00:17.467Z,74.01
2018-03-26T16:02:50.822Z,71.59
2018-03-26T16:05:18.595Z,71.62
2018-03-26T16:07:46.456Z,73.31
2018-03-26T16:10:14.496Z,73.78
2018-03-26T16:12:42.396Z,73.01
2018-03-26T16:15:10.254Z,72.66
2018-03-26T16:17:38.243Z,72.54
2018-03-26T16:20:06.811Z,72.73
2018-03-26T16:22:34.690Z,73.83
2018-03-26T16:25:02.692Z,74.29
2018-03-26T16:27:30.807Z,73.07
2018-03-26T16:29:58.850Z,71.22
2018-03-26T16:32:26.841Z,70.90
2018-03-26T16:34:55.686Z,71.37
2018-03-26T16:37:23.630Z,72.30
2018-03-26T16:39:54.391Z,72.57
2018-03-26T16:42:29.420Z,73.74
2018-03-26T16:44:58.083Z,73.64
2018-03-26T16:47:25.993Z,73.51
2018-03-26T16:49:54.084Z,74.42
2018-03-26T16:52:22.097Z,76.84
2018-03-26T16:54:50.944Z,76.97
2018-03-26T16:57:19.047Z,76.50
2018-03-26T16:59:47.150Z,76.82
2018-03-26T17:02:15.141Z,76.64
2018-03-26T17:04:43.990Z,76.92
2018-03-26T17:07:11.854Z,77.33
2018-03-26T17:09:39.518Z,77.79
2018-03-26T17:12:07.405Z,78.50
2018-03-26T17:14:35.120Z,78.78
2018-03-26T17:17:03.096Z,79.01
2018-03-26T17:19:31.389Z,79.29
2018-03-26T17:21:59.263Z,79.55
2018-03-26T17:24:28.567Z,79.74
2018-03-26T17:26:56.312Z,80.09
2018-03-26T17:29:24.261Z,81.00
2018-03-26T17:31:52.570Z,81.02
2018-03-26T17:34:20.954Z,81.46
2018-03-26T17:36:48.887Z,81.33
2018-03-26T17:39:17.101Z,81.59
2018-03-26T17:41:45.170Z,81.86
2018-03-26T17:44:14.687Z,81.82
2018-03-26T17:46:42.951Z,81.86
2018-03-26T17:49:11.311Z,81.80
2018-03-26T17:51:39.379Z,81.98
2018-03-26T17:54:07.581Z,82.44
2018-03-26T17:56:35.653Z,82.77
2018-03-26T17:59:04.134Z,82.81
2018-03-26T18:01:31.897Z,82.77
2018-03-26T18:04:00.896Z,83.05
2018-03-26T18:06:28.999Z,82.84
2018-03-26T18:08:57.647Z,82.76
2018-03-26T18:11:27.601Z,82.76
2018-03-26T18:13:57.300Z,82.18
2018-03-26T18:16:26.537Z,81.83
2018-03-26T18:18:55.122Z,81.78
2018-03-26T18:21:23.282Z,82.03
2018-03-26T18:23:51.206Z,82.91
2018-03-26T18:26:20.056Z,83.35
2018-03-26T18:28:48.747Z,83.81
2018-03-26T18:31:18.014Z,83.92
2018-03-26T18:33:47.451Z,84.16
2018-03-26T18:36:16.184Z,84.71
2018-03-26T18:38:46.842Z,83.99
2018-03-26T18:41:17.853Z,84.55
2018-03-26T18:43:46.488Z,83.71
2018-03-26T18:46:16.132Z,83.66
2018-03-26T18:48:45.603Z,83.95
2018-03-26T18:51:14.130Z,84.45
2018-03-26T18:53:44.508Z,84.51
2018-03-26T18:56:14.954Z,84.30
2018-03-26T18:58:43.871Z,83.84
2018-03-26T19:01:12.945Z,83.61
2018-03-26T19:03:42.897Z,84.15
2018-03-26T19:06:13.110Z,85.01
2018-03-26T19:08:43.126Z,85.27
2018-03-26T19:11:13.208Z,85.38
2018-03-26T19:13:42.650Z,85.79
2018-03-26T19:16:12.078Z,85.79
2018-03-26T19:18:40.774Z,85.95
2018-03-26T19:21:08.907Z,86.31
2018-03-26T19:23:37.070Z,87.40
2018-03-26T19:26:10.806Z,87.24
2018-03-26T19:28:40.169Z,86.94
2018-03-26T19:31:08.609Z,86.82
2018-03-26T19:33:37.155Z,86.44
2018-03-26T19:36:05.934Z,86.24
2018-03-26T19:38:34.415Z,86.28
2018-03-26T19:41:03.010Z,86.38
2018-03-26T19:43:31.824Z,86.62
2018-03-26T19:46:00.731Z,86.91
2018-03-26T19:48:29.585Z,87.29
2018-03-26T19:50:59.988Z,87.24
2018-03-26T19:53:28.620Z,87.67
2018-03-26T19:55:57.069Z,87.94
2018-03-26T19:58:26.190Z,86.75
2018-03-26T20:00:54.162Z,86.14
2018-03-26T20:03:22.448Z,85.04
2018-03-26T20:05:51.446Z,84.82
2018-03-26T20:08:20.427Z,85.62
2018-03-26T20:10:48.595Z,86.68
2018-03-26T20:13:18.302Z,87.20
2018-03-26T20:15:46.324Z,87.20
2018-03-26T20:18:14.212Z,87.92
2018-03-26T20:20:43.355Z,87.38
2018-03-26T20:23:11.633Z,87.13
2018-03-26T20:25:43.353Z,86.53
2018-03-26T20:28:11.785Z,86.40
2018-03-26T20:30:39.885Z,85.78
2018-03-26T20:33:07.978Z,86.45
2018-03-26T20:35:35.955Z,86.34
2018-03-26T20:38:04.023Z,87.02
2018-03-26T20:40:31.848Z,86.79
2018-03-26T20:42:59.956Z,86.03
2018-03-26T20:45:27.807Z,86.56
2018-03-26T20:47:56.208Z,87.76
2018-03-26T20:50:24.244Z,87.60
2018-03-26T20:52:55.216Z,87.71
2018-03-26T20:55:23.233Z,87.84
2018-03-26T20:57:51.474Z,87.90
2018-03-26T21:00:19.358Z,87.82
2018-03-26T21:02:48.097Z,88.45
2018-03-26T21:05:15.856Z,88.42
2018-03-26T21:07:44.905Z,88.70
2018-03-26T21:10:12.846Z,88.47
2018-03-26T21:12:40.761Z,88.70
2018-03-26T21:15:09.767Z,88.89
2018-03-26T21:17:37.879Z,89.83
2018-03-26T21:20:06.723Z,89.23
2018-03-26T21:22:34.743Z,88.80
2018-03-26T21:25:02.817Z,88.64
2018-03-26T21:27:31.490Z,88.68
2018-03-26T21:29:59.354Z,88.72
2018-03-26T21:32:27.447Z,88.68
2018-03-26T21:34:56.006Z,88.77
2018-03-26T21:37:23.937Z,89.11
2018-03-26T21:39:51.841Z,89.24
2018-03-26T21:42:19.491Z,88.72
2018-03-26T21:44:47.153Z,88.92
2018-03-26T21:47:15.932Z,88.97
2018-03-26T21:49:43.830Z,88.73
2018-03-26T21:52:11.808Z,88.90
2018-03-26T21:54:39.977Z,89.11
2018-03-26T21:57:07.900Z,89.16
2018-03-26T21:59:36.321Z,88.92
2018-03-26T22:02:04.984Z,89.19
2018-03-26T22:04:32.872Z,89.14
2018-03-26T22:07:00.854Z,89.10
2018-03-26T22:09:28.762Z,88.62
2018-03-26T22:11:56.591Z,88.46
2018-03-26T22:14:24.667Z,88.51
2018-03-26T22:16:52.428Z,88.70
2018-03-26T22:19:21.319Z,88.79
2018-03-26T22:21:49.189Z,89.03
2018-03-26T22:24:16.782Z,89.15
2018-03-26T22:26:44.572Z,89.44
2018-03-26T22:29:12.442Z,89.32
2018-03-26T22:31:40.246Z,89.38
2018-03-26T22:34:07.903Z,89.45
2018-03-26T22:36:35.874Z,89.40
2018-03-26T22:39:03.767Z,89.45
2018-03-26T22:41:32.000Z,89.36
2018-03-26T22:44:00.268Z,89.09
2018-03-26T22:46:28.272Z,89.37
2018-03-26T22:48:55.956Z,89.53
2018-03-26T22:51:24.002Z,89.69
2018-03-26T22:53:52.437Z,89.64
2018-03-26T22:56:20.233Z,89.90
2018-03-26T22:58:48.114Z,89.76
2018-03-26T23:01:16.185Z,89.71
2018-03-26T23:03:44.053Z,89.89
2018-03-26T23:06:12.127Z,89.80
2018-03-26T23:08:40.308Z,89.53
2018-03-26T23:11:08.757Z,89.61
2018-03-26T23:13:37.074Z,89.89
2018-03-26T23:16:05.326Z,89.62
2018-03-26T23:18:33.211Z,89.78
2018-03-26T23:21:01.075Z,89.77
2018-03-26T23:23:28.928Z,89.75
2018-03-26T23:25:56.795Z,89.99
2018-03-26T23:28:24.655Z,90.02
2018-03-26T23:30:52.646Z,89.72
2018-03-26T23:33:20.493Z,89.62
2018-03-26T23:35:48.272Z,89.63
2018-03-26T23:38:16.126Z,89.35
2018-03-26T23:40:44.518Z,89.63
2018-03-26T23:43:12.168Z,89.69
2018-03-26T23:45:39.818Z,89.27
2018-03-26T23:48:07.495Z,90.43
2018-03-26T23:50:35.463Z,90.48
2018-03-26T23:53:03.080Z,90.20
2018-03-26T23:55:30.734Z,90.19
2018-03-26T23:57:58.365Z,90.56
